createdAt,value
2018-02-15T00:01:01.714Z,74.18
2018-02-15T00:16:01.893Z,73.57
2018-02-15T00:26:01.762Z,73.44
2018-02-15T00:41:01.700Z,73.15
2018-02-15T00:56:01.782Z,72.84
2018-02-15T01:11:01.918Z,72.54
2018-02-15T01:26:01.802Z,72.53
2018-02-15T01:41:01.753Z,73.05
2018-02-15T01:56:01.768Z,71.96
2018-02-15T02:11:01.725Z,72.47
2018-02-15T02:26:01.737Z,72.38
2018-02-15T02:41:06.765Z,72.71
2018-02-15T02:46:01.676Z,72.71
2018-02-15T03:01:01.760Z,72.95
2018-02-15T03:16:01.683Z,73.22
2018-02-15T03:31:01.687Z,73.02
2018-02-15T03:46:06.776Z,73.04
2018-02-15T04:01:06.723Z,72.91
2018-02-15T04:16:01.807Z,72.58
2018-02-15T04:31:01.779Z,72.07
2018-02-15T04:46:01.710Z,71.56
2018-02-15T05:01:16.548Z,71.55
2018-02-15T05:16:01.711Z,71.36
2018-02-15T05:26:01.771Z,71.08
2018-02-15T05:41:01.676Z,71.05
2018-02-15T05:46:01.913Z,71.05
2018-02-15T06:01:01.887Z,71.36
2018-02-15T06:16:01.712Z,71.67
2018-02-15T06:31:01.732Z,72.39
2018-02-15T06:46:06.794Z,71.93
2018-02-15T07:01:02.033Z,72.25
2018-02-15T07:06:01.772Z,72.25
2018-02-15T07:21:01.762Z,72.08
2018-02-15T07:36:01.767Z,71.92
2018-02-15T07:51:01.743Z,71.64
2018-02-15T08:01:01.888Z,70.98
2018-02-15T08:16:06.734Z,69.76
2018-02-15T08:21:01.774Z,69.71
2018-02-15T08:31:02.819Z,68.88
2018-02-15T08:41:01.743Z,69.06
2018-02-15T08:51:01.732Z,68.72
2018-02-15T09:06:01.790Z,68.24
2018-02-15T09:21:06.789Z,68.18
2018-02-15T09:26:01.729Z,68.18
2018-02-15T09:41:01.811Z,67.78
2018-02-15T09:56:01.745Z,68.49
2018-02-15T10:06:01.709Z,66.40
2018-02-15T10:21:01.789Z,66.70
2018-02-15T10:36:01.746Z,66.20
2018-02-15T10:51:02.777Z,66.53
2018-02-15T10:56:01.675Z,66.53
2018-02-15T11:06:01.603Z,65.92
2018-02-15T11:21:01.764Z,75.82
2018-02-15T11:31:01.625Z,81.17
2018-02-15T11:41:01.586Z,82.67
2018-02-15T11:46:01.504Z,82.67
2018-02-15T11:56:01.506Z,83.78
2018-02-15T12:01:01.544Z,84.49
2018-02-15T12:11:01.497Z,84.85
2018-02-15T12:16:01.533Z,84.85
2018-02-15T12:21:01.605Z,85.13
2018-02-15T12:26:01.497Z,85.13
2018-02-15T12:37:01.521Z,84.48
2018-02-15T12:52:06.562Z,83.54
2018-02-15T13:07:01.591Z,83.78
2018-02-15T13:22:01.604Z,82.54
2018-02-15T13:38:01.630Z,83.06
2018-02-15T13:48:01.594Z,84.46
2018-02-15T14:03:01.532Z,86.06
2018-02-15T14:18:01.730Z,86.54
2018-02-15T14:28:01.679Z,86.75
2018-02-15T14:43:01.599Z,87.50
2018-02-15T14:58:01.528Z,88.08
2018-02-15T15:13:01.511Z,88.86
2018-02-15T15:28:01.534Z,89.03
2018-02-15T15:43:02.940Z,88.97
2018-02-15T15:58:01.549Z,89.18
2018-02-15T16:13:06.561Z,90.32
2018-02-15T16:28:01.662Z,91.56
2018-02-15T16:43:01.934Z,93.10
2018-02-15T16:58:01.576Z,93.26
2018-02-15T17:13:01.558Z,93.27
2018-02-15T17:28:01.411Z,93.68
2018-02-15T17:43:01.386Z,93.77
2018-02-15T17:58:01.650Z,94.24
2018-02-15T18:13:01.720Z,94.53
2018-02-15T18:28:01.608Z,94.48
2018-02-15T18:43:01.752Z,94.77
2018-02-15T18:58:02.846Z,95.00
2018-02-15T19:13:01.682Z,95.09
2018-02-15T19:28:02.803Z,95.11
2018-02-15T19:43:01.794Z,96.61
2018-02-15T19:53:01.577Z,96.80
2018-02-15T20:08:02.735Z,97.35
2018-02-15T20:23:01.681Z,98.27
2018-02-15T20:38:01.762Z,98.41
2018-02-15T20:48:01.750Z,98.55
2018-02-15T21:03:01.796Z,98.62
2018-02-15T21:13:07.020Z,98.71
2018-02-15T21:28:01.742Z,98.71
2018-02-15T21:43:01.746Z,99.95
2018-02-15T21:58:01.740Z,100.00
2018-02-15T22:13:01.775Z,100.00
2018-02-15T22:18:01.628Z,100.00
2018-02-15T22:33:02.738Z,100.00
2018-02-15T22:43:06.804Z,100.00
2018-02-15T22:58:01.757Z,100.00
2018-02-15T23:13:01.766Z,99.65
2018-02-15T23:28:01.759Z,99.46
2018-02-15T23:43:01.686Z,99.22
2018-02-15T23:48:01.616Z,99.22
